createdAt,value
2023-05-05T00:01:16.074Z,12.84
2023-05-05T00:03:44.809Z,12.77
2023-05-05T00:06:14.994Z,12.73
2023-05-05T00:08:43.511Z,12.67
2023-05-05T00:11:12.088Z,12.63
2023-05-05T00:13:40.772Z,12.59
2023-05-05T00:16:09.737Z,12.57
2023-05-05T00:18:38.206Z,12.54
2023-05-05T00:21:06.967Z,12.52
2023-05-05T00:23:36.938Z,12.50
2023-05-05T00:26:05.429Z,12.50
2023-05-05T00:28:33.930Z,12.51
2023-05-05T00:31:02.456Z,12.51
2023-05-05T00:33:30.846Z,12.53
2023-05-05T00:35:59.452Z,12.54
2023-05-05T00:38:28.096Z,12.54
2023-05-05T00:40:58.778Z,12.52
2023-05-05T00:43:28.108Z,12.49
2023-05-05T00:46:05.682Z,12.47
2023-05-05T00:48:34.595Z,12.44
2023-05-05T00:51:03.048Z,12.41
2023-05-05T00:53:31.752Z,12.37
2023-05-05T00:56:02.116Z,12.34
2023-05-05T00:58:31.796Z,12.31
2023-05-05T01:01:00.138Z,12.29
2023-05-05T01:03:28.726Z,12.27
2023-05-05T01:06:18.809Z,12.22
2023-05-05T01:09:04.457Z,12.19
2023-05-05T01:11:44.092Z,12.16
2023-05-05T01:14:17.290Z,12.13
2023-05-05T01:16:58.587Z,12.13
2023-05-05T01:19:56.589Z,12.12
2023-05-05T01:22:29.630Z,12.11
2023-05-05T01:25:39.576Z,12.10
2023-05-05T01:28:28.204Z,12.09
2023-05-05T01:31:25.001Z,12.08
2023-05-05T01:34:01.709Z,12.09
2023-05-05T01:36:38.471Z,12.13
2023-05-05T01:39:10.122Z,12.17
2023-05-05T01:41:44.475Z,12.24
2023-05-05T01:44:14.915Z,12.29
2023-05-05T01:46:43.310Z,12.36
2023-05-05T01:49:14.626Z,12.41
2023-05-05T01:51:43.910Z,12.46
2023-05-05T01:54:12.628Z,12.48
2023-05-05T01:56:42.444Z,12.49
2023-05-05T01:59:12.726Z,12.48
2023-05-05T02:01:44.728Z,12.47
2023-05-05T02:04:16.493Z,12.45
2023-05-05T02:06:47.598Z,12.47
2023-05-05T02:09:16.572Z,12.47
2023-05-05T02:11:45.292Z,12.48
2023-05-05T02:14:15.053Z,12.49
2023-05-05T02:16:44.583Z,12.49
2023-05-05T02:19:16.338Z,12.51
2023-05-05T02:21:45.046Z,12.52
2023-05-05T02:24:13.560Z,12.51
2023-05-05T02:26:45.942Z,12.51
2023-05-05T02:29:19.702Z,12.52
2023-05-05T02:31:52.535Z,12.53
2023-05-05T02:34:27.747Z,12.55
2023-05-05T02:36:59.908Z,12.58
2023-05-05T02:39:34.378Z,12.61
2023-05-05T02:42:05.495Z,12.63
2023-05-05T02:44:36.072Z,12.64
2023-05-05T02:47:05.221Z,12.65
2023-05-05T02:49:35.086Z,12.65
2023-05-05T02:52:03.514Z,12.65
2023-05-05T02:54:33.946Z,12.68
2023-05-05T02:57:02.866Z,12.69
2023-05-05T02:59:39.632Z,12.71
2023-05-05T03:02:18.644Z,12.72
2023-05-05T03:04:52.952Z,12.74
2023-05-05T03:07:29.008Z,12.73
2023-05-05T03:10:05.556Z,12.73
2023-05-05T03:12:40.041Z,12.72
2023-05-05T03:15:11.216Z,12.70
2023-05-05T03:17:42.272Z,12.68
2023-05-05T03:20:15.281Z,12.67
2023-05-05T03:22:43.637Z,12.64
2023-05-05T03:25:12.436Z,12.60
2023-05-05T03:27:40.786Z,12.54
2023-05-05T03:30:11.017Z,12.47
2023-05-05T03:32:39.615Z,12.41
2023-05-05T03:35:08.884Z,12.34
2023-05-05T03:37:38.898Z,12.29
2023-05-05T03:40:09.527Z,12.23
2023-05-05T03:42:38.106Z,12.16
2023-05-05T03:45:07.886Z,12.11
2023-05-05T03:47:36.703Z,12.08
2023-05-05T03:50:05.725Z,12.05
2023-05-05T03:52:38.277Z,12.02
2023-05-05T03:55:09.401Z,12.04
2023-05-05T03:57:37.832Z,12.06
2023-05-05T04:00:11.950Z,12.13
2023-05-05T04:02:40.342Z,12.19
2023-05-05T04:05:09.390Z,12.28
2023-05-05T04:07:38.526Z,12.35
2023-05-05T04:10:11.076Z,12.42
2023-05-05T04:12:39.534Z,12.49
2023-05-05T04:15:11.888Z,12.56
2023-05-05T04:17:40.230Z,12.67
2023-05-05T04:20:09.953Z,12.77
2023-05-05T04:22:38.997Z,12.87
2023-05-05T04:25:09.495Z,12.96
2023-05-05T04:27:38.076Z,13.04
2023-05-05T04:30:09.727Z,13.07
2023-05-05T04:32:38.441Z,13.09
2023-05-05T04:35:08.583Z,13.09
2023-05-05T04:37:37.133Z,13.13
2023-05-05T04:40:08.539Z,13.14
2023-05-05T04:42:38.896Z,13.17
2023-05-05T04:45:09.728Z,13.16
2023-05-05T04:47:41.699Z,13.15
2023-05-05T04:50:12.126Z,13.15
2023-05-05T04:52:41.004Z,13.15
2023-05-05T04:55:11.787Z,13.14
2023-05-05T04:57:41.561Z,13.10
2023-05-05T05:00:11.791Z,13.03
2023-05-05T05:02:40.257Z,12.98
2023-05-05T05:05:10.614Z,13.01
2023-05-05T05:07:40.093Z,13.05
2023-05-05T05:10:21.629Z,13.06
2023-05-05T05:12:51.332Z,13.04
2023-05-05T05:15:20.116Z,13.01
2023-05-05T05:17:48.930Z,12.99
2023-05-05T05:20:17.329Z,12.98
2023-05-05T05:22:46.410Z,12.94
2023-05-05T05:25:15.081Z,12.91
2023-05-05T05:27:43.543Z,12.89
2023-05-05T05:30:14.738Z,12.86
2023-05-05T05:32:44.042Z,12.81
2023-05-05T05:35:12.434Z,12.73
2023-05-05T05:37:41.755Z,12.64
2023-05-05T05:40:11.789Z,12.59
2023-05-05T05:42:42.274Z,12.57
2023-05-05T05:45:12.938Z,12.56
2023-05-05T05:47:42.257Z,12.59
2023-05-05T05:50:11.540Z,12.61
2023-05-05T05:52:40.106Z,12.62
2023-05-05T05:55:10.410Z,12.65
2023-05-05T05:57:38.771Z,12.70
2023-05-05T06:00:09.284Z,12.80
2023-05-05T06:02:39.806Z,12.92
2023-05-05T06:05:08.928Z,13.04
2023-05-05T06:07:37.388Z,13.22
2023-05-05T06:10:22.661Z,13.42
2023-05-05T06:12:55.279Z,13.59
2023-05-05T06:15:23.626Z,13.69
2023-05-05T06:17:53.486Z,13.75
2023-05-05T06:20:22.286Z,13.80
2023-05-05T06:22:50.886Z,13.85
2023-05-05T06:25:19.597Z,13.92
2023-05-05T06:27:48.508Z,13.98
2023-05-05T06:30:17.918Z,13.97
2023-05-05T06:32:46.517Z,13.95
2023-05-05T06:35:16.969Z,13.94
2023-05-05T06:37:45.990Z,13.94
2023-05-05T06:40:14.655Z,13.95
2023-05-05T06:42:43.051Z,13.96
2023-05-05T06:45:12.674Z,13.96
2023-05-05T06:47:41.063Z,14.05
2023-05-05T06:50:11.165Z,14.17
2023-05-05T06:52:41.289Z,14.34
2023-05-05T06:55:10.823Z,14.49
2023-05-05T06:57:39.152Z,14.64
2023-05-05T07:00:11.414Z,14.80
2023-05-05T07:02:40.252Z,14.95
2023-05-05T07:05:09.061Z,15.03
2023-05-05T07:07:38.330Z,15.08
2023-05-05T07:10:10.098Z,15.16
2023-05-05T07:12:38.665Z,15.18
2023-05-05T07:15:23.524Z,15.20
2023-05-05T07:17:56.016Z,15.20
2023-05-05T07:20:25.215Z,15.21
2023-05-05T07:22:53.769Z,15.22
2023-05-05T07:25:23.767Z,15.17
2023-05-05T07:27:52.468Z,15.09
2023-05-05T07:30:21.472Z,14.99
2023-05-05T07:32:51.199Z,14.96
2023-05-05T07:35:20.075Z,15.00
2023-05-05T07:37:48.726Z,15.05
2023-05-05T07:40:17.291Z,15.05
2023-05-05T07:42:48.420Z,15.15
2023-05-05T07:45:16.771Z,15.29
2023-05-05T07:47:45.694Z,15.43
2023-05-05T07:50:14.181Z,15.52
2023-05-05T07:52:49.893Z,15.58
2023-05-05T07:55:22.558Z,15.62
2023-05-05T07:57:52.492Z,15.67
2023-05-05T08:00:25.800Z,15.74
2023-05-05T08:02:54.364Z,15.86
2023-05-05T08:05:22.911Z,16.00
2023-05-05T08:07:51.217Z,16.19
2023-05-05T08:10:20.047Z,16.40
2023-05-05T08:12:48.516Z,16.58
2023-05-05T08:15:18.603Z,16.74
2023-05-05T08:17:49.167Z,16.88
2023-05-05T08:20:21.669Z,17.02
2023-05-05T08:22:51.702Z,17.09
2023-05-05T08:25:21.267Z,17.24
2023-05-05T08:27:50.005Z,17.43
2023-05-05T08:30:21.467Z,17.61
2023-05-05T08:32:50.159Z,17.77
2023-05-05T08:35:20.409Z,17.90
2023-05-05T08:37:48.721Z,17.92
2023-05-05T08:40:17.052Z,18.04
2023-05-05T08:42:46.417Z,18.20
2023-05-05T08:45:14.865Z,18.34
2023-05-05T08:47:44.857Z,18.49
2023-05-05T08:50:14.120Z,18.59
2023-05-05T08:52:45.164Z,18.70
2023-05-05T08:55:26.214Z,18.83
2023-05-05T08:57:57.970Z,18.95
2023-05-05T09:00:27.825Z,19.07
2023-05-05T09:02:59.634Z,19.22
2023-05-05T09:05:29.130Z,19.38
2023-05-05T09:07:57.737Z,19.59
2023-05-05T09:10:30.528Z,19.76
2023-05-05T09:12:59.869Z,19.90
2023-05-05T09:15:29.060Z,19.98
2023-05-05T09:17:59.440Z,20.00
2023-05-05T09:20:36.090Z,20.14
2023-05-05T09:23:12.022Z,20.26
2023-05-05T09:25:41.246Z,20.37
2023-05-05T09:28:11.885Z,20.51
2023-05-05T09:30:41.953Z,20.68
2023-05-05T09:33:12.362Z,20.79
2023-05-05T09:35:53.471Z,20.85
2023-05-05T09:38:23.684Z,20.99
2023-05-05T09:40:57.259Z,21.00
2023-05-05T09:43:26.339Z,21.00
2023-05-05T09:46:08.345Z,21.13
2023-05-05T09:48:42.776Z,21.29
2023-05-05T09:51:11.349Z,21.50
2023-05-05T09:53:42.378Z,21.71
2023-05-05T09:56:11.439Z,21.92
2023-05-05T09:58:40.405Z,22.09
2023-05-05T10:01:24.366Z,22.24
2023-05-05T10:03:54.907Z,22.43
2023-05-05T10:06:42.786Z,22.73
2023-05-05T10:09:11.361Z,22.96
2023-05-05T10:11:42.552Z,23.16
2023-05-05T10:14:15.794Z,23.23
2023-05-05T10:16:50.943Z,23.30
2023-05-05T10:19:25.203Z,23.50
2023-05-05T10:22:09.076Z,23.68
2023-05-05T10:24:45.655Z,23.89
2023-05-05T10:27:17.608Z,24.08
2023-05-05T10:29:53.944Z,24.34
2023-05-05T10:32:51.992Z,24.72
2023-05-05T10:35:25.009Z,25.07
2023-05-05T10:37:55.690Z,25.12
2023-05-05T10:40:25.133Z,24.96
2023-05-05T10:42:56.111Z,24.96
2023-05-05T10:45:24.971Z,24.95
2023-05-05T10:47:55.532Z,24.91
2023-05-05T10:50:34.781Z,24.90
2023-05-05T10:53:20.163Z,25.12
2023-05-05T10:55:57.989Z,25.14
2023-05-05T10:58:51.020Z,25.22
2023-05-05T11:01:33.708Z,25.33
2023-05-05T11:04:21.985Z,25.38
2023-05-05T11:10:03.141Z,25.84
2023-05-05T11:12:32.818Z,26.19
2023-05-05T11:15:38.714Z,26.52
2023-05-05T11:18:08.613Z,26.70
2023-05-05T11:21:18.779Z,26.59
2023-05-05T11:23:50.248Z,26.51
2023-05-05T11:26:51.136Z,26.24
2023-05-05T11:29:19.790Z,26.04
2023-05-05T11:32:15.690Z,26.11
2023-05-05T11:34:51.194Z,26.27
2023-05-05T11:37:23.967Z,26.37
2023-05-05T11:40:04.776Z,26.52
2023-05-05T11:42:34.727Z,26.72
2023-05-05T11:45:23.364Z,26.78
2023-05-05T11:47:52.413Z,26.90
2023-05-05T11:50:25.111Z,27.13
2023-05-05T11:52:53.511Z,27.29
2023-05-05T11:55:25.065Z,27.49
2023-05-05T11:57:55.272Z,27.49
2023-05-05T12:00:35.124Z,27.41
2023-05-05T12:03:03.660Z,27.44
2023-05-05T12:05:35.751Z,27.53
2023-05-05T12:08:05.459Z,27.37
2023-05-05T12:10:34.019Z,27.16
2023-05-05T12:13:03.764Z,27.11
2023-05-05T12:15:33.840Z,26.95
2023-05-05T12:18:03.215Z,26.80
2023-05-05T12:20:35.155Z,26.67
2023-05-05T12:23:04.835Z,26.56
2023-05-05T12:25:38.368Z,26.63
2023-05-05T12:28:09.520Z,26.92
2023-05-05T12:30:38.322Z,27.26
2023-05-05T12:33:08.634Z,27.59
2023-05-05T12:35:37.839Z,27.73
2023-05-05T12:38:06.183Z,27.60
2023-05-05T12:40:48.475Z,27.73
2023-05-05T12:43:31.255Z,27.76
2023-05-05T12:46:09.028Z,27.59
2023-05-05T12:48:39.166Z,27.24
2023-05-05T12:51:20.185Z,26.92
2023-05-05T12:53:50.507Z,26.58
2023-05-05T12:56:37.577Z,26.16
2023-05-05T12:59:10.393Z,25.81
2023-05-05T13:01:51.639Z,25.42
2023-05-05T13:04:23.465Z,25.05
2023-05-05T13:07:11.791Z,24.60
2023-05-05T13:09:41.042Z,23.80
2023-05-05T13:12:12.188Z,22.51
2023-05-05T13:14:42.953Z,21.39
2023-05-05T13:17:11.832Z,20.78
2023-05-05T13:19:46.033Z,20.63
2023-05-05T13:22:15.281Z,20.56
2023-05-05T13:25:07.289Z,20.50
2023-05-05T13:27:35.001Z,20.31
2023-05-05T13:30:08.531Z,19.96
2023-05-05T13:32:36.791Z,19.35
2023-05-05T13:35:06.304Z,18.71
2023-05-05T13:37:35.102Z,18.23
2023-05-05T13:40:03.600Z,17.85
2023-05-05T13:42:33.304Z,17.49
2023-05-05T13:45:01.657Z,17.19
2023-05-05T13:47:31.960Z,16.88
2023-05-05T13:50:00.849Z,16.54
2023-05-05T13:52:31.620Z,16.21
2023-05-05T13:55:01.964Z,15.98
2023-05-05T13:57:30.438Z,16.01
2023-05-05T13:59:59.976Z,16.06
2023-05-05T14:02:33.855Z,16.07
2023-05-05T14:05:03.382Z,16.08
2023-05-05T14:07:39.229Z,16.05
2023-05-05T14:10:10.548Z,16.04
2023-05-05T14:12:45.536Z,16.08
2023-05-05T14:15:14.291Z,16.05
2023-05-05T14:17:45.086Z,16.02
2023-05-05T14:20:14.288Z,15.96
2023-05-05T14:22:43.266Z,15.93
2023-05-05T14:25:11.806Z,15.87
2023-05-05T14:27:40.657Z,15.76
2023-05-05T14:30:10.736Z,15.70
2023-05-05T14:32:42.065Z,15.60
2023-05-05T14:35:14.346Z,15.46
2023-05-05T14:37:43.403Z,15.30
2023-05-05T14:40:12.339Z,15.11
2023-05-05T14:42:41.109Z,15.00
2023-05-05T14:45:11.267Z,14.97
2023-05-05T14:47:41.451Z,14.95
2023-05-05T14:50:14.273Z,15.00
2023-05-05T14:52:44.443Z,14.99
2023-05-05T14:55:12.903Z,14.99
2023-05-05T14:57:41.560Z,15.02
2023-05-05T15:00:11.992Z,15.01
2023-05-05T15:02:41.724Z,15.05
2023-05-05T15:05:11.920Z,15.06
2023-05-05T15:07:40.559Z,15.07
2023-05-05T15:10:09.926Z,15.08
2023-05-05T15:12:38.993Z,15.09
2023-05-05T15:15:13.475Z,15.09
2023-05-05T15:17:42.020Z,15.10
2023-05-05T15:20:14.305Z,15.14
2023-05-05T15:22:42.796Z,15.12
2023-05-05T15:25:14.861Z,15.13
2023-05-05T15:27:43.970Z,15.12
2023-05-05T15:30:14.269Z,15.12
2023-05-05T15:32:43.144Z,15.10
2023-05-05T15:35:13.292Z,15.10
2023-05-05T15:37:42.619Z,15.12
2023-05-05T15:40:12.640Z,15.17
2023-05-05T15:42:41.146Z,15.23
2023-05-05T15:45:12.528Z,15.25
2023-05-05T15:47:40.847Z,15.25
2023-05-05T15:50:10.616Z,15.26
2023-05-05T15:52:40.620Z,15.25
2023-05-05T15:55:11.014Z,15.28
2023-05-05T15:57:40.460Z,15.36
2023-05-05T16:00:10.375Z,15.44
2023-05-05T16:02:39.855Z,15.42
2023-05-05T16:05:09.462Z,15.39
2023-05-05T16:07:40.276Z,15.43
2023-05-05T16:10:10.741Z,15.55
2023-05-05T16:12:39.284Z,15.62
2023-05-05T16:15:09.386Z,15.63
2023-05-05T16:17:38.110Z,15.61
2023-05-05T16:20:07.871Z,15.64
2023-05-05T16:22:37.142Z,15.71
2023-05-05T16:25:08.778Z,15.82
2023-05-05T16:27:37.696Z,15.92
2023-05-05T16:30:08.617Z,16.06
2023-05-05T16:32:39.114Z,16.29
2023-05-05T16:35:09.383Z,16.61
2023-05-05T16:37:38.104Z,16.99
2023-05-05T16:40:10.122Z,17.19
2023-05-05T16:42:38.764Z,17.16
2023-05-05T16:45:10.072Z,16.97
2023-05-05T16:47:38.556Z,16.97
2023-05-05T16:50:08.628Z,17.08
2023-05-05T16:52:36.950Z,17.17
2023-05-05T16:55:07.780Z,17.22
2023-05-05T16:57:36.288Z,17.28
2023-05-05T17:00:05.353Z,17.72
2023-05-05T17:02:33.813Z,19.75
2023-05-05T17:05:02.190Z,21.20
2023-05-05T17:07:30.580Z,21.68
2023-05-05T17:09:59.266Z,21.98
2023-05-05T17:12:29.093Z,22.02
2023-05-05T17:14:57.709Z,21.30
2023-05-05T17:17:26.388Z,20.53
2023-05-05T17:19:58.470Z,19.92
2023-05-05T17:22:27.324Z,19.45
2023-05-05T17:24:56.213Z,19.18
2023-05-05T17:27:25.240Z,18.96
2023-05-05T17:29:55.178Z,18.71
2023-05-05T17:32:23.725Z,18.36
2023-05-05T17:34:52.424Z,18.05
2023-05-05T17:37:22.740Z,17.80
2023-05-05T17:39:51.439Z,17.64
2023-05-05T17:42:22.950Z,17.48
2023-05-05T17:44:51.476Z,17.35
2023-05-05T17:47:22.519Z,17.25
2023-05-05T17:49:51.508Z,17.06
2023-05-05T17:52:20.141Z,16.86
2023-05-05T17:54:48.810Z,16.74
2023-05-05T17:57:18.844Z,16.62
2023-05-05T17:59:47.231Z,16.53
2023-05-05T18:02:15.676Z,16.45
2023-05-05T18:04:45.880Z,16.41
2023-05-05T18:07:15.666Z,16.45
2023-05-05T18:09:44.714Z,16.77
2023-05-05T18:12:13.247Z,17.29
2023-05-05T18:14:42.606Z,17.93
2023-05-05T18:17:10.918Z,18.39
2023-05-05T18:19:42.907Z,18.09
2023-05-05T18:22:12.928Z,17.77
2023-05-05T18:24:41.275Z,17.49
2023-05-05T18:27:09.649Z,17.28
2023-05-05T18:29:37.992Z,17.20
2023-05-05T18:32:07.474Z,17.21
2023-05-05T18:34:35.933Z,17.18
2023-05-05T18:37:04.494Z,17.17
2023-05-05T18:39:34.371Z,17.08
2023-05-05T18:42:03.954Z,17.00
2023-05-05T18:44:34.845Z,16.87
2023-05-05T18:47:03.299Z,16.73
2023-05-05T18:49:31.838Z,16.60
2023-05-05T18:52:00.959Z,16.47
2023-05-05T18:54:31.009Z,16.37
2023-05-05T18:57:01.178Z,16.28
2023-05-05T18:59:29.869Z,16.19
2023-05-05T19:01:59.456Z,16.09
2023-05-05T19:04:31.750Z,15.97
2023-05-05T19:07:00.477Z,15.87
2023-05-05T19:09:29.010Z,15.77
2023-05-05T19:11:57.925Z,15.64
2023-05-05T19:14:28.577Z,15.53
2023-05-05T19:16:59.100Z,15.41
2023-05-05T19:19:28.144Z,15.31
2023-05-05T19:21:56.863Z,15.18
2023-05-05T19:24:25.440Z,15.07
2023-05-05T19:26:56.396Z,14.96
2023-05-05T19:29:24.983Z,14.86
2023-05-05T19:31:55.271Z,14.74
2023-05-05T19:34:23.822Z,14.64
2023-05-05T19:36:52.832Z,14.56
2023-05-05T19:39:21.663Z,14.49
2023-05-05T19:41:50.436Z,14.42
2023-05-05T19:44:18.906Z,14.35
2023-05-05T19:46:47.725Z,14.26
2023-05-05T19:49:17.556Z,14.16
2023-05-05T19:51:50.385Z,14.07
2023-05-05T19:54:19.492Z,13.98
2023-05-05T19:56:48.191Z,13.91
2023-05-05T19:59:16.756Z,13.82
2023-05-05T20:01:45.185Z,13.77
2023-05-05T20:04:13.630Z,13.71
2023-05-05T20:06:43.404Z,13.64
2023-05-05T20:09:11.853Z,13.58
2023-05-05T20:11:40.402Z,13.52
2023-05-05T20:14:08.868Z,13.47
2023-05-05T20:16:37.411Z,13.41
2023-05-05T20:19:06.222Z,13.35
2023-05-05T20:21:36.085Z,13.30
2023-05-05T20:24:06.927Z,13.26
2023-05-05T20:26:35.354Z,13.20
2023-05-05T20:29:03.840Z,13.15
2023-05-05T20:31:32.313Z,13.09
2023-05-05T20:34:00.764Z,13.06
2023-05-05T20:36:29.230Z,13.02
2023-05-05T20:38:57.980Z,12.98
2023-05-05T20:41:29.347Z,12.96
2023-05-05T20:43:57.987Z,12.92
2023-05-05T20:46:26.922Z,12.92
2023-05-05T20:48:55.450Z,12.92
2023-05-05T20:51:24.345Z,12.96
2023-05-05T20:53:53.798Z,12.99
2023-05-05T20:56:22.597Z,13.05
2023-05-05T20:58:52.906Z,13.12
2023-05-05T21:01:21.795Z,13.20
2023-05-05T21:03:50.558Z,13.27
2023-05-05T21:06:20.140Z,13.32
2023-05-05T21:08:49.306Z,13.37
2023-05-05T21:11:17.722Z,13.39
2023-05-05T21:13:46.191Z,13.44
2023-05-05T21:16:15.913Z,13.49
2023-05-05T21:18:46.750Z,13.55
2023-05-05T21:21:15.153Z,13.60
2023-05-05T21:23:43.556Z,13.66
2023-05-05T21:26:11.923Z,13.71
2023-05-05T21:28:40.284Z,13.75
2023-05-05T21:31:21.987Z,13.80
2023-05-05T21:33:52.823Z,13.82
2023-05-05T21:36:21.838Z,13.85
2023-05-05T21:38:51.455Z,13.88
2023-05-05T21:41:19.826Z,13.89
2023-05-05T21:43:48.432Z,13.89
2023-05-05T21:46:17.836Z,13.90
2023-05-05T21:48:48.411Z,13.93
2023-05-05T21:51:18.542Z,13.95
2023-05-05T21:53:46.960Z,13.98
2023-05-05T21:56:15.350Z,14.00
2023-05-05T21:58:43.853Z,14.01
2023-05-05T22:01:13.346Z,14.00
2023-05-05T22:03:43.769Z,13.97
2023-05-05T22:06:12.422Z,13.95
2023-05-05T22:08:42.346Z,13.93
2023-05-05T22:11:10.889Z,13.91
2023-05-05T22:13:40.916Z,13.91
2023-05-05T22:16:10.932Z,13.92
2023-05-05T22:18:39.422Z,13.91
2023-05-05T22:21:08.506Z,13.91
2023-05-05T22:23:39.087Z,13.88
2023-05-05T22:26:09.296Z,13.84
2023-05-05T22:28:38.622Z,13.79
2023-05-05T22:31:07.289Z,13.75
2023-05-05T22:33:36.225Z,13.71
2023-05-05T22:36:05.043Z,13.68
2023-05-05T22:38:33.447Z,13.66
2023-05-05T22:41:02.086Z,13.67
2023-05-05T22:43:32.168Z,13.70
2023-05-05T22:46:01.259Z,13.75
2023-05-05T22:48:29.570Z,13.81
2023-05-05T22:50:58.260Z,13.86
2023-05-05T22:53:26.881Z,13.91
2023-05-05T22:55:55.653Z,13.94
2023-05-05T22:58:26.753Z,13.98
2023-05-05T23:00:56.675Z,14.01
2023-05-05T23:03:25.709Z,14.01
2023-05-05T23:05:54.191Z,14.01
2023-05-05T23:08:24.706Z,14.03
2023-05-05T23:10:54.550Z,14.04
2023-05-05T23:13:25.887Z,14.04
2023-05-05T23:15:55.807Z,14.06
2023-05-05T23:18:24.419Z,14.07
2023-05-05T23:20:53.157Z,14.08
2023-05-05T23:23:21.929Z,14.09
2023-05-05T23:25:51.594Z,14.09
2023-05-05T23:28:20.674Z,14.10
2023-05-05T23:30:49.246Z,14.11
2023-05-05T23:33:19.610Z,14.12
2023-05-05T23:35:48.775Z,14.15
2023-05-05T23:38:17.314Z,14.19
2023-05-05T23:40:45.716Z,14.21
2023-05-05T23:43:14.219Z,14.23
2023-05-05T23:45:42.620Z,14.23
2023-05-05T23:48:10.987Z,14.26
2023-05-05T23:50:41.393Z,14.27
2023-05-05T23:53:10.671Z,14.28
2023-05-05T23:55:39.120Z,14.28
2023-05-05T23:58:07.543Z,14.28
